Time;durP1;ratioP1;P1;durP2;ratioP2;P2;SDS_P1;SDS_P2;PMS_P1;PMS_P2;Temp;Humidity;BMP_temperature;BMP_pressure;BME280_temperature;BME280_humidity;BME280_pressure;Samples;Min_cycle;Max_cycle;Signal;HPM_P1;HPM_P2
2022/10/23 00:00:47;;;;;;;21.73;16.15;;;;;;;;;;5080241;28;20068;-74
2022/10/23 00:03:12;;;;;;;24.85;16.02;;;;;;;;;;5071371;28;20470;-74
2022/10/23 00:05:39;;;;;;;18.50;12.55;;;;;;;;;;5079104;28;20031;-74
2022/10/23 00:08:05;;;;;;;20.35;11.13;;;;;;;;;;5082555;28;20096;-75
2022/10/23 00:10:30;;;;;;;17.08;11.70;;;;;;;;;;5083793;28;20040;-72
2022/10/23 00:12:55;;;;;;;14.30;9.95;;;;;;;;;;5080592;28;20028;-75
2022/10/23 00:15:21;;;;;;;17.83;9.43;;;;;;;;;;5070101;28;20511;-73
2022/10/23 00:17:47;;;;;;;14.35;9.85;;;;;;;;;;5069316;28;20058;-76
2022/10/23 00:20:12;;;;;;;15.93;9.57;;;;;;;;;;5078826;28;20500;-72
2022/10/23 00:22:38;;;;;;;13.82;9.35;;;;;;;;;;5082230;28;20027;-72
2022/10/23 00:25:05;;;;;;;16.08;9.18;;;;;;;;;;5077788;28;20016;-73
2022/10/23 00:27:30;;;;;;;13.70;9.70;;;;;;;;;;5076751;28;20119;-74
2022/10/23 00:29:55;;;;;;;17.38;9.63;;;;;;;;;;5071642;28;20131;-74
2022/10/23 00:32:21;;;;;;;14.63;8.63;;;;;;;;;;5081924;28;20472;-75
2022/10/23 00:34:46;;;;;;;15.40;8.95;;;;;;;;;;5078722;28;20031;-74
2022/10/23 00:37:12;;;;;;;13.93;8.43;;;;;;;;;;5074868;28;20036;-73
2022/10/23 00:39:37;;;;;;;13.77;7.28;;;;;;;;;;5082242;28;20031;-73
2022/10/23 00:42:03;;;;;;;13.77;7.88;;;;;;;;;;5079525;28;20467;-77
2022/10/23 00:44:28;;;;;;;18.63;10.15;;;;;;;;;;5071383;28;20020;-74
2022/10/23 00:46:53;;;;;;;14.13;9.82;;;;;;;;;;5076320;28;20028;-72
2022/10/23 00:49:19;;;;;;;16.63;10.90;;;;;;;;;;5076478;28;20261;-76
2022/10/23 00:51:56;;;;;;;16.05;10.30;;;;;;;;;;5082246;28;20111;-73
2022/10/23 00:54:24;;;;;;;19.15;13.77;;;;;;;;;;5076083;28;20024;-74
2022/10/23 00:56:50;;;;;;;19.73;12.68;;;;;;;;;;5077251;28;20032;-73
2022/10/23 00:59:15;;;;;;;16.70;12.32;;;;;;;;;;5080810;28;20569;-74
2022/10/23 01:01:41;;;;;;;16.05;10.45;;;;;;;;;;5081771;28;20130;-75
2022/10/23 01:04:08;;;;;;;16.20;10.38;;;;;;;;;;5070405;28;20367;-73
2022/10/23 01:06:39;;;;;;;14.90;10.57;;;;;;;;;;5082657;28;20024;-73
2022/10/23 01:09:07;;;;;;;16.55;9.90;;;;;;;;;;5078640;28;20028;-73
2022/10/23 01:11:59;;;;;;;22.45;12.18;;;;;;;;;;5082260;28;20020;-75
2022/10/23 01:14:27;;;;;;;21.05;12.98;;;;;;;;;;5079808;28;20471;-73
2022/10/23 01:16:53;;;;;;;18.42;11.45;;;;;;;;;;5081749;28;20063;-74
2022/10/23 01:19:37;;;;;;;15.30;11.10;;;;;;;;;;5075567;28;20078;-72
2022/10/23 01:22:20;;;;;;;21.35;14.77;;;;;;;;;;5077705;28;20077;-75
2022/10/23 01:24:50;;;;;;;20.40;14.55;;;;;;;;;;5081691;28;20032;-73
2022/10/23 01:27:22;;;;;;;20.50;14.32;;;;;;;;;;5081102;28;20081;-74
2022/10/23 01:29:51;;;;;;;17.77;12.82;;;;;;;;;;5080462;28;20422;-72
2022/10/23 01:32:20;;;;;;;20.73;12.88;;;;;;;;;;5081158;28;20071;-72
2022/10/23 01:34:46;;;;;;;;;;;;;;;;;;5081857;28;20032;-74
2022/10/23 01:37:12;;;;;;;16.67;12.63;;;;;;;;;;5080829;28;19912;-73
2022/10/23 01:39:40;;;;;;;14.57;11.18;;;;;;;;;;5080119;28;20047;-72
2022/10/23 01:42:09;;;;;;;14.90;11.20;;;;;;;;;;5081881;28;20031;-74
2022/10/23 01:44:43;;;;;;;14.70;10.45;;;;;;;;;;5080849;28;20116;-72
2022/10/23 01:47:09;;;;;;;13.40;10.48;;;;;;;;;;5080061;28;20359;-75
2022/10/23 01:49:36;;;;;;;15.13;10.57;;;;;;;;;;5078269;28;20133;-72
2022/10/23 01:52:04;;;;;;;13.13;10.25;;;;;;;;;;5078946;28;20028;-73
2022/10/23 01:54:31;;;;;;;17.40;11.55;;;;;;;;;;5079916;28;20086;-73
2022/10/23 01:56:57;;;;;;;15.10;10.40;;;;;;;;;;5081092;28;20161;-73
2022/10/23 01:59:25;;;;;;;16.73;11.50;;;;;;;;;;5079179;28;20463;-73
2022/10/23 02:01:52;;;;;;;15.50;12.35;;;;;;;;;;5080232;28;20359;-73
2022/10/23 02:04:21;;;;;;;15.77;11.60;;;;;;;;;;5080529;28;20031;-74
2022/10/23 02:06:46;;;;;;;15.57;12.20;;;;;;;;;;5079346;28;20028;-73
2022/10/23 02:09:11;;;;;;;14.05;11.77;;;;;;;;;;5066761;28;20028;-72
2022/10/23 02:11:42;;;;;;;16.38;12.32;;;;;;;;;;5080142;28;20024;-73
2022/10/23 02:14:07;;;;;;;15.35;12.10;;;;;;;;;;5079215;28;20133;-73
2022/10/23 02:16:39;;;;;;;16.17;12.88;;;;;;;;;;5078673;28;20111;-73
2022/10/23 02:19:07;;;;;;;16.15;13.07;;;;;;;;;;5080403;28;20035;-74
2022/10/23 02:21:59;;;;;;;15.55;12.52;;;;;;;;;;5080070;28;20074;-74
2022/10/23 02:24:30;;;;;;;14.70;12.48;;;;;;;;;;5080401;28;20446;-77
2022/10/23 02:26:58;;;;;;;17.15;12.63;;;;;;;;;;5080793;28;20031;-76
2022/10/23 02:29:34;;;;;;;14.77;11.93;;;;;;;;;;5079107;28;20063;-73
2022/10/23 02:32:00;;;;;;;14.90;12.48;;;;;;;;;;5080082;28;20039;-74
2022/10/23 02:34:25;;;;;;;13.65;12.20;;;;;;;;;;5080765;28;20036;-73
2022/10/23 02:36:51;;;;;;;16.33;12.27;;;;;;;;;;5080497;28;20090;-75
2022/10/23 02:39:16;;;;;;;16.00;12.05;;;;;;;;;;5078891;28;20096;-73
2022/10/23 02:41:56;;;;;;;17.00;13.27;;;;;;;;;;5079305;28;20020;-75
2022/10/23 02:44:27;;;;;;;16.63;13.18;;;;;;;;;;5079933;28;20032;-74
2022/10/23 02:46:59;;;;;;;19.58;14.98;;;;;;;;;;5079554;28;20089;-75
2022/10/23 02:49:37;;;;;;;22.90;14.60;;;;;;;;;;5078710;28;20067;-73
2022/10/23 02:52:15;;;;;;;18.63;13.50;;;;;;;;;;5080237;28;20035;-74
2022/10/23 02:54:57;;;;;;;18.13;13.48;;;;;;;;;;5080106;28;20107;-75
2022/10/23 02:57:31;;;;;;;16.63;13.82;;;;;;;;;;5079347;28;20334;-73
2022/10/23 02:59:59;;;;;;;17.02;12.90;;;;;;;;;;5078553;28;20341;-74
2022/10/23 03:02:27;;;;;;;17.20;13.13;;;;;;;;;;5079987;28;20173;-73
2022/10/23 03:04:54;;;;;;;19.23;14.77;;;;;;;;;;5080368;28;20020;-74
2022/10/23 03:07:20;;;;;;;24.02;18.75;;;;;;;;;;5081174;28;20039;-75
2022/10/23 03:09:46;;;;;;;26.33;19.30;;;;;;;;;;5080360;28;20036;-74
2022/10/23 03:12:11;;;;;;;21.17;16.48;;;;;;;;;;5080917;28;20028;-77
2022/10/23 03:14:37;;;;;;;18.90;14.50;;;;;;;;;;5080491;28;20024;-74
2022/10/23 03:17:03;;;;;;;21.13;15.95;;;;;;;;;;5077214;28;20024;-74
2022/10/23 03:19:28;;;;;;;19.20;16.73;;;;;;;;;;5079279;28;20024;-74
2022/10/23 03:21:54;;;;;;;26.88;21.20;;;;;;;;;;5079260;28;20016;-75
2022/10/23 03:24:19;;;;;;;35.40;25.65;;;;;;;;;;5079692;28;20339;-72
2022/10/23 03:26:44;;;;;;;29.95;21.98;;;;;;;;;;5079794;28;20043;-72
2022/10/23 03:29:10;;;;;;;29.40;25.05;;;;;;;;;;5079427;28;20170;-72
2022/10/23 03:31:35;;;;;;;26.80;21.30;;;;;;;;;;5078584;28;20024;-73
2022/10/23 03:34:00;;;;;;;19.50;17.27;;;;;;;;;;5077520;28;20320;-72
2022/10/23 03:36:26;;;;;;;20.73;16.05;;;;;;;;;;5079509;28;20639;-74
2022/10/23 03:38:51;;;;;;;17.42;14.80;;;;;;;;;;5078754;28;20792;-72
2022/10/23 03:41:16;;;;;;;18.27;15.32;;;;;;;;;;5078515;28;20024;-74
2022/10/23 03:43:42;;;;;;;16.00;13.55;;;;;;;;;;5078607;28;20036;-74
2022/10/23 03:46:11;;;;;;;16.33;13.43;;;;;;;;;;5079236;28;20496;-73
2022/10/23 03:48:37;;;;;;;16.52;13.63;;;;;;;;;;5079656;28;20048;-74
2022/10/23 03:51:03;;;;;;;16.05;13.75;;;;;;;;;;5078012;28;20039;-73
2022/10/23 03:53:28;;;;;;;17.08;13.90;;;;;;;;;;5079090;28;20021;-73
2022/10/23 03:55:54;;;;;;;26.60;21.90;;;;;;;;;;5081899;28;20075;-72
2022/10/23 03:58:19;;;;;;;29.52;25.38;;;;;;;;;;5082279;28;20032;-72
2022/10/23 04:00:44;;;;;;;27.30;22.17;;;;;;;;;;5082438;28;20744;-73
2022/10/23 04:03:10;;;;;;;24.20;20.02;;;;;;;;;;5081913;28;20020;-75
2022/10/23 04:05:35;;;;;;;23.20;16.42;;;;;;;;;;5072637;28;20072;-73
2022/10/23 04:08:00;;;;;;;18.67;16.77;;;;;;;;;;5078271;28;20028;-77
2022/10/23 04:10:26;;;;;;;15.93;14.40;;;;;;;;;;5069755;28;20039;-72
2022/10/23 04:12:51;;;;;;;16.98;15.05;;;;;;;;;;5077320;28;20032;-72
2022/10/23 04:15:17;;;;;;;22.00;17.80;;;;;;;;;;5074932;28;20035;-73
2022/10/23 04:17:42;;;;;;;21.35;17.63;;;;;;;;;;5081824;28;20040;-74
2022/10/23 04:20:08;;;;;;;15.35;13.35;;;;;;;;;;5082063;28;20480;-72
2022/10/23 04:22:33;;;;;;;21.55;18.13;;;;;;;;;;5081994;28;20036;-72
2022/10/23 04:24:58;;;;;;;14.85;13.32;;;;;;;;;;5080242;28;20020;-76
2022/10/23 04:27:24;;;;;;;16.00;14.40;;;;;;;;;;5081901;28;20028;-73
2022/10/23 04:29:49;;;;;;;25.20;19.85;;;;;;;;;;5073041;28;20343;-73
2022/10/23 04:32:14;;;;;;;25.40;19.90;;;;;;;;;;5074708;28;20032;-75
2022/10/23 04:34:40;;;;;;;21.52;18.52;;;;;;;;;;5079376;28;20028;-72
2022/10/23 04:37:05;;;;;;;21.80;18.70;;;;;;;;;;5082569;28;20020;-73
2022/10/23 04:39:30;;;;;;;21.42;18.00;;;;;;;;;;5082546;28;20116;-72
2022/10/23 04:41:56;;;;;;;24.80;19.77;;;;;;;;;;5082436;28;20019;-74
2022/10/23 04:44:21;;;;;;;19.65;16.70;;;;;;;;;;5082080;28;20127;-72
2022/10/23 04:46:46;;;;;;;15.88;14.27;;;;;;;;;;5076953;28;20020;-72
2022/10/23 04:49:12;;;;;;;22.00;17.80;;;;;;;;;;5069734;28;20059;-72
2022/10/23 04:51:37;;;;;;;21.95;17.35;;;;;;;;;;5081065;28;20442;-72
2022/10/23 04:54:03;;;;;;;16.83;15.07;;;;;;;;;;5080745;28;20020;-76
2022/10/23 04:56:28;;;;;;;17.88;15.73;;;;;;;;;;5082083;28;20098;-72
2022/10/23 04:58:53;;;;;;;19.05;16.08;;;;;;;;;;5081303;28;20031;-76
2022/10/23 05:01:19;;;;;;;16.80;15.00;;;;;;;;;;5082431;28;20368;-74
2022/10/23 05:03:44;;;;;;;19.55;16.27;;;;;;;;;;5068252;28;20024;-72
2022/10/23 05:06:10;;;;;;;19.73;15.40;;;;;;;;;;5068072;28;20301;-74
2022/10/23 05:08:35;;;;;;;17.92;14.75;;;;;;;;;;5068279;28;20475;-73
2022/10/23 05:11:00;;;;;;;16.75;14.18;;;;;;;;;;5069903;28;20351;-72
2022/10/23 05:13:26;;;;;;;13.68;12.38;;;;;;;;;;5068974;28;20028;-72
2022/10/23 05:15:52;;;;;;;14.85;13.32;;;;;;;;;;5080226;28;20039;-74
2022/10/23 05:18:23;;;;;;;13.43;12.13;;;;;;;;;;5073733;28;20036;-74
2022/10/23 05:20:50;;;;;;;15.82;12.40;;;;;;;;;;5080859;28;20083;-73
2022/10/23 05:23:17;;;;;;;15.30;12.50;;;;;;;;;;5081379;28;20063;-72
2022/10/23 05:25:42;;;;;;;12.40;10.80;;;;;;;;;;5074938;28;20047;-72
2022/10/23 05:28:07;;;;;;;21.95;18.58;;;;;;;;;;5068629;28;20067;-74
2022/10/23 05:30:33;;;;;;;14.15;12.77;;;;;;;;;;5067772;28;20019;-73
2022/10/23 05:33:00;;;;;;;16.63;14.43;;;;;;;;;;5070203;28;20028;-76
2022/10/23 05:35:26;;;;;;;15.15;13.50;;;;;;;;;;5068757;28;20080;-73
2022/10/23 05:37:52;;;;;;;14.05;12.48;;;;;;;;;;5066650;28;20020;-73
2022/10/23 05:40:17;;;;;;;17.55;13.25;;;;;;;;;;5066266;28;20024;-75
2022/10/23 05:42:43;;;;;;;18.60;16.73;;;;;;;;;;5068116;28;20554;-72
2022/10/23 05:45:08;;;;;;;15.23;13.63;;;;;;;;;;5069109;28;20028;-72
2022/10/23 05:47:34;;;;;;;15.95;13.38;;;;;;;;;;5067842;28;20035;-75
2022/10/23 05:49:59;;;;;;;14.40;12.88;;;;;;;;;;5064541;28;20351;-72
2022/10/23 05:52:24;;;;;;;12.88;11.68;;;;;;;;;;5068251;28;21160;-71
2022/10/23 05:54:50;;;;;;;26.92;24.17;;;;;;;;;;5068432;28;20016;-72
2022/10/23 05:57:15;;;;;;;48.00;33.63;;;;;;;;;;5068844;28;20028;-72
2022/10/23 05:59:41;;;;;;;37.38;28.50;;;;;;;;;;5067574;28;20508;-71
2022/10/23 06:02:06;;;;;;;34.72;26.70;;;;;;;;;;5068824;28;20032;-75
2022/10/23 06:04:33;;;;;;;37.03;28.25;;;;;;;;;;5072036;28;20477;-73
2022/10/23 06:06:58;;;;;;;35.38;29.48;;;;;;;;;;5069302;28;20023;-75
2022/10/23 06:09:24;;;;;;;27.25;23.20;;;;;;;;;;5075244;28;20032;-72
2022/10/23 06:11:49;;;;;;;27.58;19.42;;;;;;;;;;5066991;28;20020;-72
2022/10/23 06:14:14;;;;;;;22.20;18.15;;;;;;;;;;5074093;28;20035;-74
2022/10/23 06:16:40;;;;;;;21.90;18.60;;;;;;;;;;5079354;28;20089;-72
2022/10/23 06:19:08;;;;;;;19.77;15.13;;;;;;;;;;5079836;28;20028;-73
2022/10/23 06:21:35;;;;;;;14.55;13.05;;;;;;;;;;5079524;28;20023;-73
2022/10/23 06:24:00;;;;;;;17.63;14.55;;;;;;;;;;5080064;28;20031;-72
2022/10/23 06:26:26;;;;;;;20.88;15.60;;;;;;;;;;5069950;28;20012;-72
2022/10/23 06:28:51;;;;;;;18.00;14.00;;;;;;;;;;5075334;28;20039;-73
2022/10/23 06:31:18;;;;;;;16.00;12.38;;;;;;;;;;5077343;28;20027;-72
2022/10/23 06:33:44;;;;;;;15.95;11.70;;;;;;;;;;5080059;28;20046;-74
2022/10/23 06:36:09;;;;;;;17.80;15.30;;;;;;;;;;5079318;28;20465;-73
2022/10/23 06:38:39;;;;;;;30.60;26.02;;;;;;;;;;5077774;28;20062;-71
2022/10/23 06:41:05;;;;;;;35.10;29.15;;;;;;;;;;5065887;28;21050;-73
2022/10/23 06:43:31;;;;;;;39.67;33.42;;;;;;;;;;5069095;28;20028;-73
2022/10/23 06:45:59;;;;;;;64.65;56.53;;;;;;;;;;5080054;28;20454;-76
2022/10/23 06:48:24;;;;;;;70.90;52.45;;;;;;;;;;5077602;28;20047;-73
2022/10/23 06:50:49;;;;;;;48.53;38.03;;;;;;;;;;5066635;28;20024;-72
2022/10/23 06:53:15;;;;;;;54.00;36.55;;;;;;;;;;5064919;28;20079;-74
2022/10/23 06:55:40;;;;;;;40.08;32.25;;;;;;;;;;5063259;28;20016;-74
2022/10/23 06:58:09;;;;;;;22.05;19.38;;;;;;;;;;5066801;28;20016;-73
2022/10/23 07:00:36;;;;;;;16.20;12.43;;;;;;;;;;5072215;28;20031;-77
2022/10/23 07:03:01;;;;;;;18.55;13.13;;;;;;;;;;5068847;28;20428;-72
2022/10/23 07:05:26;;;;;;;15.98;11.27;;;;;;;;;;5080537;28;20111;-75
2022/10/23 07:07:52;;;;;;;9.98;8.98;;;;;;;;;;5078440;28;20355;-75
2022/10/23 07:10:17;;;;;;;9.63;8.23;;;;;;;;;;5065145;28;20032;-75
2022/10/23 07:12:43;;;;;;;9.85;8.45;;;;;;;;;;5067101;28;20103;-76
2022/10/23 07:15:09;;;;;;;8.30;7.43;;;;;;;;;;5067227;28;20436;-75
2022/10/23 07:17:34;;;;;;;7.15;6.38;;;;;;;;;;5066605;28;20077;-72
2022/10/23 07:20:00;;;;;;;7.65;6.05;;;;;;;;;;5065383;28;20036;-72
2022/10/23 07:22:25;;;;;;;9.38;7.10;;;;;;;;;;5066788;28;20048;-72
2022/10/23 07:24:50;;;;;;;7.93;7.15;;;;;;;;;;5067431;28;20112;-72
2022/10/23 07:27:16;;;;;;;5.10;4.60;;;;;;;;;;5067036;28;20163;-72
2022/10/23 07:29:41;;;;;;;5.35;4.30;;;;;;;;;;5069406;28;20032;-72
2022/10/23 07:32:08;;;;;;;4.53;4.13;;;;;;;;;;5071034;28;20095;-73
2022/10/23 07:34:35;;;;;;;5.32;4.82;;;;;;;;;;5070649;28;20035;-72
2022/10/23 07:37:01;;;;;;;4.80;4.03;;;;;;;;;;5069887;28;20098;-72
2022/10/23 07:39:26;;;;;;;5.63;5.07;;;;;;;;;;5078608;28;20057;-73
2022/10/23 07:41:51;;;;;;;9.48;8.23;;;;;;;;;;5083813;28;20035;-75
2022/10/23 07:44:17;;;;;;;5.47;4.85;;;;;;;;;;5082468;28;20031;-74
2022/10/23 07:46:42;;;;;;;4.57;4.18;;;;;;;;;;5083064;28;20448;-73
2022/10/23 07:49:09;;;;;;;5.15;4.07;;;;;;;;;;5081330;28;20044;-75
2022/10/23 07:51:34;;;;;;;5.47;4.13;;;;;;;;;;5069189;28;20020;-73
2022/10/23 07:53:59;;;;;;;3.95;3.55;;;;;;;;;;5070845;28;20366;-73
2022/10/23 07:56:28;;;;;;;6.57;4.40;;;;;;;;;;5070332;28;20431;-72
2022/10/23 07:58:54;;;;;;;10.90;9.65;;;;;;;;;;5070071;28;20039;-72
2022/10/23 08:01:24;;;;;;;5.80;5.30;;;;;;;;;;5069567;28;20031;-74
2022/10/23 08:03:50;;;;;;;5.07;4.57;;;;;;;;;;5068790;28;20038;-72
2022/10/23 08:06:15;;;;;;;5.22;4.45;;;;;;;;;;5070599;28;20028;-73
2022/10/23 08:08:40;;;;;;;4.97;4.57;;;;;;;;;;5068770;28;20092;-73
2022/10/23 08:11:06;;;;;;;4.45;4.05;;;;;;;;;;5079433;28;20027;-73
2022/10/23 08:13:31;;;;;;;11.82;4.07;;;;;;;;;;5082414;28;20443;-73
2022/10/23 08:15:57;;;;;;;7.10;5.53;;;;;;;;;;5082225;28;20913;-73
2022/10/23 08:18:22;;;;;;;6.13;4.90;;;;;;;;;;5082656;28;20016;-73
2022/10/23 08:20:49;;;;;;;3.88;3.50;;;;;;;;;;5082868;28;20031;-72
2022/10/23 08:23:17;;;;;;;5.65;4.70;;;;;;;;;;5072005;28;20020;-72
2022/10/23 08:25:42;;;;;;;3.38;3.08;;;;;;;;;;5075981;28;20032;-72
2022/10/23 08:28:08;;;;;;;4.22;3.83;;;;;;;;;;5081180;28;20334;-72
2022/10/23 08:30:34;;;;;;;5.07;4.57;;;;;;;;;;5081936;28;20028;-74
2022/10/23 08:33:01;;;;;;;3.15;2.80;;;;;;;;;;5081747;28;20027;-70
2022/10/23 08:35:26;;;;;;;4.68;3.40;;;;;;;;;;5082396;28;20016;-71
2022/10/23 08:37:52;;;;;;;4.68;2.95;;;;;;;;;;5081603;28;20028;-71
2022/10/23 08:40:20;;;;;;;5.15;2.95;;;;;;;;;;5080825;28;20035;-71
2022/10/23 08:42:50;;;;;;;6.63;3.07;;;;;;;;;;5081242;28;20039;-72
2022/10/23 08:45:53;;;;;;;5.15;3.15;;;;;;;;;;5081541;28;20866;-73
2022/10/23 08:48:29;;;;;;;2.72;2.53;;;;;;;;;;5053409;28;20055;-72
2022/10/23 08:50:58;;;;;;;3.40;3.10;;;;;;;;;;5073873;28;20511;-72
2022/10/23 08:53:28;;;;;;;4.10;3.70;;;;;;;;;;5081076;28;20830;-73
2022/10/23 08:56:14;;;;;;;4.13;3.70;;;;;;;;;;5082087;28;20028;-74
2022/10/23 08:58:44;;;;;;;4.93;3.30;;;;;;;;;;5079380;28;20306;-74
2022/10/23 09:01:33;;;;;;;5.32;3.35;;;;;;;;;;5079546;28;20026;-74
2022/10/23 09:03:58;;;;;;;3.13;2.83;;;;;;;;;;5074538;28;20128;-76
2022/10/23 09:06:33;;;;;;;3.85;3.40;;;;;;;;;;5081671;28;20091;-74
2022/10/23 09:09:06;;;;;;;3.47;3.17;;;;;;;;;;5080826;28;20039;-75
2022/10/23 09:11:50;;;;;;;3.50;3.13;;;;;;;;;;5081997;28;20829;-73
2022/10/23 09:14:34;;;;;;;2.70;2.50;;;;;;;;;;5078437;28;20028;-74
2022/10/23 09:17:09;;;;;;;3.03;2.75;;;;;;;;;;5072699;28;20103;-71
2022/10/23 09:19:34;;;;;;;3.30;2.97;;;;;;;;;;5081341;28;20738;-75
2022/10/23 09:21:59;;;;;;;3.42;2.95;;;;;;;;;;5081652;28;20020;-74
2022/10/23 09:24:30;;;;;;;3.60;3.30;;;;;;;;;;5080362;28;20036;-74
2022/10/23 09:26:56;;;;;;;3.50;3.00;;;;;;;;;;5080113;28;20024;-75
2022/10/23 09:29:30;;;;;;;3.35;2.90;;;;;;;;;;5078203;28;20035;-76
2022/10/23 09:31:57;;;;;;;3.03;2.75;;;;;;;;;;5068484;28;20724;-72
2022/10/23 09:34:27;;;;;;;3.53;3.20;;;;;;;;;;5076451;28;20064;-72
2022/10/23 09:36:54;;;;;;;7.40;5.88;;;;;;;;;;5080978;28;20081;-72
2022/10/23 09:39:30;;;;;;;2.42;2.22;;;;;;;;;;5081377;28;20443;-73
2022/10/23 09:41:56;;;;;;;5.07;2.97;;;;;;;;;;5079348;28;20024;-72
2022/10/23 09:44:29;;;;;;;6.68;4.80;;;;;;;;;;5079409;28;20032;-74
2022/10/23 09:46:57;;;;;;;3.55;3.20;;;;;;;;;;5079218;28;20347;-75
2022/10/23 09:49:24;;;;;;;2.88;2.67;;;;;;;;;;5067325;28;20446;-74
2022/10/23 09:52:09;;;;;;;6.78;3.67;;;;;;;;;;5067345;28;20134;-73
2022/10/23 09:54:43;;;;;;;7.50;2.33;;;;;;;;;;5068984;28;20105;-75
2022/10/23 09:57:21;;;;;;;2.20;2.03;;;;;;;;;;5080674;28;20038;-75
2022/10/23 09:59:50;;;;;;;2.53;2.10;;;;;;;;;;5080920;28;20038;-74
2022/10/23 10:02:20;;;;;;;2.78;2.30;;;;;;;;;;5081181;28;20166;-76
2022/10/23 10:04:46;;;;;;;1.98;1.88;;;;;;;;;;5080163;28;20035;-73
2022/10/23 10:07:22;;;;;;;7.10;2.38;;;;;;;;;;5079804;28;20028;-73
2022/10/23 10:09:48;;;;;;;4.45;2.90;;;;;;;;;;5071746;28;20368;-72
2022/10/23 10:12:32;;;;;;;5.20;3.83;;;;;;;;;;5066285;28;20038;-74
2022/10/23 10:15:07;;;;;;;12.50;7.10;;;;;;;;;;5074419;28;20032;-72
2022/10/23 10:17:44;;;;;;;2.33;2.10;;;;;;;;;;5076373;28;20080;-73
2022/10/23 10:20:16;;;;;;;3.38;2.47;;;;;;;;;;5070162;28;20024;-72
2022/10/23 10:23:07;;;;;;;3.03;2.40;;;;;;;;;;5079056;28;20128;-74
2022/10/23 10:25:38;;;;;;;2.47;2.28;;;;;;;;;;5011156;28;20074;-75
2022/10/23 10:28:22;;;;;;;8.57;7.80;;;;;;;;;;5012663;28;20039;-72
2022/10/23 10:30:47;;;;;;;2.97;2.33;;;;;;;;;;5010390;28;20034;-73
2022/10/23 10:33:16;;;;;;;3.58;2.70;;;;;;;;;;5008244;28;20037;-77
2022/10/23 10:35:51;;;;;;;6.03;2.70;;;;;;;;;;5000045;28;20037;-76
2022/10/23 10:38:25;;;;;;;3.00;2.22;;;;;;;;;;5009239;28;20562;-74
2022/10/23 10:41:09;;;;;;;4.07;2.42;;;;;;;;;;5009792;28;20464;-73
2022/10/23 10:43:59;;;;;;;2.20;2.00;;;;;;;;;;5003667;28;20184;-74
2022/10/23 10:46:43;;;;;;;3.55;2.42;;;;;;;;;;5009177;28;20029;-73
2022/10/23 10:49:19;;;;;;;2.17;2.00;;;;;;;;;;5006047;28;20053;-74
2022/10/23 10:51:44;;;;;;;2.13;1.92;;;;;;;;;;4994958;28;20040;-75
2022/10/23 10:54:32;;;;;;;2.50;2.30;;;;;;;;;;5003190;28;20792;-75
2022/10/23 10:56:59;;;;;;;1.98;1.80;;;;;;;;;;5007233;28;20421;-74
2022/10/23 10:59:29;;;;;;;3.38;2.10;;;;;;;;;;4999954;28;20032;-76
2022/10/23 11:02:02;;;;;;;3.42;2.15;;;;;;;;;;5024354;28;20028;-75
2022/10/23 11:04:31;;;;;;;1.88;1.70;;;;;;;;;;5079486;28;20047;-77
2022/10/23 11:06:58;;;;;;;2.17;1.63;;;;;;;;;;5080064;28;20020;-73
2022/10/23 11:09:27;;;;;;;1.77;1.67;;;;;;;;;;5069200;28;20028;-74
2022/10/23 11:11:53;;;;;;;4.78;1.90;;;;;;;;;;5081804;28;20344;-75
2022/10/23 11:14:20;;;;;;;2.25;1.85;;;;;;;;;;5082716;28;20035;-73
2022/10/23 11:16:46;;;;;;;1.90;1.40;;;;;;;;;;5082545;28;20032;-74
2022/10/23 11:19:24;;;;;;;2.20;1.73;;;;;;;;;;5083568;28;20427;-73
2022/10/23 11:21:49;;;;;;;2.25;2.00;;;;;;;;;;5082757;28;20028;-73
2022/10/23 11:24:24;;;;;;;2.13;1.65;;;;;;;;;;5082709;28;20032;-73
2022/10/23 11:26:52;;;;;;;1.77;1.63;;;;;;;;;;5083341;28;20024;-77
2022/10/23 11:29:27;;;;;;;1.85;1.70;;;;;;;;;;5083087;28;20120;-74
2022/10/23 11:32:01;;;;;;;1.67;1.58;;;;;;;;;;5082988;28;20127;-74
2022/10/23 11:34:27;;;;;;;2.10;1.45;;;;;;;;;;5083562;28;20052;-74
2022/10/23 11:36:53;;;;;;;1.70;1.60;;;;;;;;;;5082750;28;20052;-76
2022/10/23 11:39:20;;;;;;;2.50;1.90;;;;;;;;;;5082814;28;20439;-73
2022/10/23 11:41:47;;;;;;;1.80;1.70;;;;;;;;;;5083105;28;20036;-73
2022/10/23 11:44:25;;;;;;;1.88;1.50;;;;;;;;;;5082389;28;20070;-74
2022/10/23 11:46:59;;;;;;;1.50;1.40;;;;;;;;;;5083271;28;20055;-76
2022/10/23 11:49:24;;;;;;;2.00;1.80;;;;;;;;;;5082812;28;20047;-72
2022/10/23 11:52:00;;;;;;;3.35;2.00;;;;;;;;;;5083768;28;20020;-74
2022/10/23 11:54:26;;;;;;;2.20;1.70;;;;;;;;;;5083410;28;20078;-74
2022/10/23 11:57:10;;;;;;;2.35;1.35;;;;;;;;;;5081589;28;20405;-75
2022/10/23 11:59:44;;;;;;;1.90;1.40;;;;;;;;;;5082270;28;20089;-74
2022/10/23 12:02:30;;;;;;;1.52;1.30;;;;;;;;;;5083458;28;20016;-73
2022/10/23 12:04:57;;;;;;;2.17;1.52;;;;;;;;;;5073133;28;20031;-76
2022/10/23 12:07:27;;;;;;;1.60;1.50;;;;;;;;;;5083802;28;20035;-76
2022/10/23 12:10:15;;;;;;;4.10;1.33;;;;;;;;;;5082410;28;20115;-76
2022/10/23 12:12:42;;;;;;;1.58;0.80;;;;;;;;;;5077233;28;20028;-74
2022/10/23 12:15:07;;;;;;;1.10;1.00;;;;;;;;;;5082992;28;20020;-74
2022/10/23 12:17:35;;;;;;;2.35;1.30;;;;;;;;;;5082334;28;20031;-76
2022/10/23 12:20:06;;;;;;;2.50;1.53;;;;;;;;;;5083343;28;20028;-74
2022/10/23 12:22:52;;;;;;;2.17;1.70;;;;;;;;;;5082733;28;20039;-76
2022/10/23 12:25:27;;;;;;;1.63;1.50;;;;;;;;;;5060455;28;20042;-75
2022/10/23 12:28:11;;;;;;;1.20;1.10;;;;;;;;;;5082062;28;20031;-75
2022/10/23 12:30:56;;;;;;;1.35;1.20;;;;;;;;;;5082376;28;20039;-77
2022/10/23 12:33:21;;;;;;;2.03;1.20;;;;;;;;;;5082381;28;20414;-75
2022/10/23 12:35:53;;;;;;;1.40;1.20;;;;;;;;;;5081694;28;20111;-74
2022/10/23 12:38:20;;;;;;;1.92;1.10;;;;;;;;;;5073633;28;20034;-77
2022/10/23 12:40:53;;;;;;;1.30;0.95;;;;;;;;;;5075124;28;20039;-74
2022/10/23 12:43:26;;;;;;;1.13;0.93;;;;;;;;;;5081358;28;20451;-75
2022/10/23 12:45:53;;;;;;;0.98;0.88;;;;;;;;;;5068983;28;20020;-75
2022/10/23 12:48:20;;;;;;;1.70;1.33;;;;;;;;;;5075692;28;20048;-74
2022/10/23 12:50:49;;;;;;;1.10;0.90;;;;;;;;;;5074842;28;20055;-74
2022/10/23 12:53:16;;;;;;;3.55;2.95;;;;;;;;;;5067276;28;20107;-73
2022/10/23 12:55:54;;;;;;;2.90;2.70;;;;;;;;;;5075337;28;20081;-73
2022/10/23 12:58:20;;;;;;;6.93;5.35;;;;;;;;;;5068017;28;20107;-73
2022/10/23 13:01:15;;;;;;;12.13;8.60;;;;;;;;;;5069020;28;20143;-74
2022/10/23 13:03:40;;;;;;;5.68;4.30;;;;;;;;;;5071324;28;20085;-73
2022/10/23 13:06:06;;;;;;;12.07;8.55;;;;;;;;;;5079938;28;20148;-71
2022/10/23 13:08:33;;;;;;;19.80;13.75;;;;;;;;;;5081702;28;20024;-72
2022/10/23 13:10:58;;;;;;;19.65;14.30;;;;;;;;;;5081188;28;20039;-74
2022/10/23 13:13:24;;;;;;;10.93;8.27;;;;;;;;;;5078309;28;20347;-74
2022/10/23 13:15:50;;;;;;;25.77;19.02;;;;;;;;;;5071214;28;20048;-74
2022/10/23 13:18:15;;;;;;;12.55;9.93;;;;;;;;;;5071243;28;20092;-75
2022/10/23 13:21:01;;;;;;;14.07;11.93;;;;;;;;;;5080123;28;20020;-73
2022/10/23 13:23:31;;;;;;;9.65;7.78;;;;;;;;;;5081236;28;20336;-74
2022/10/23 13:26:00;;;;;;;9.30;7.28;;;;;;;;;;5069206;28;20080;-74
2022/10/23 13:28:27;;;;;;;10.35;6.60;;;;;;;;;;5076290;28;20435;-72
2022/10/23 13:31:18;;;;;;;18.35;15.10;;;;;;;;;;5071199;28;20053;-74
2022/10/23 13:33:45;;;;;;;26.77;17.73;;;;;;;;;;5068451;28;20052;-73
2022/10/23 13:36:13;;;;;;;49.95;31.25;;;;;;;;;;5073291;28;20020;-75
2022/10/23 13:38:43;;;;;;;46.92;30.08;;;;;;;;;;5067985;28;20074;-75
2022/10/23 13:41:18;;;;;;;24.55;14.57;;;;;;;;;;5067595;28;20020;-73
2022/10/23 13:43:44;;;;;;;15.07;12.52;;;;;;;;;;5067234;28;20097;-73
2022/10/23 13:46:16;;;;;;;15.98;14.27;;;;;;;;;;5068635;28;20344;-73
2022/10/23 13:48:42;;;;;;;8.07;6.10;;;;;;;;;;5067990;28;20044;-74
2022/10/23 13:51:12;;;;;;;12.20;11.00;;;;;;;;;;5066912;28;20094;-73
2022/10/23 13:53:37;;;;;;;11.82;10.70;;;;;;;;;;5066937;28;20032;-73
2022/10/23 13:56:03;;;;;;;7.82;7.03;;;;;;;;;;5067427;28;20461;-75
2022/10/23 13:58:28;;;;;;;12.07;10.73;;;;;;;;;;5066817;28;20042;-74
2022/10/23 14:00:53;;;;;;;14.98;13.38;;;;;;;;;;5067411;28;20470;-76
2022/10/23 14:03:23;;;;;;;12.75;11.55;;;;;;;;;;5067271;28;20024;-74
2022/10/23 14:05:48;;;;;;;;;;;;;;;;;;5067439;28;20020;-75
2022/10/23 14:08:13;;;;;;;8.97;8.07;;;;;;;;;;5066460;28;20310;-76
2022/10/23 14:10:39;;;;;;;10.43;8.60;;;;;;;;;;5064421;28;20031;-73
2022/10/23 14:13:04;;;;;;;8.40;6.70;;;;;;;;;;5067018;28;20031;-75
2022/10/23 14:15:29;;;;;;;9.85;8.90;;;;;;;;;;5067075;28;20031;-74
2022/10/23 14:17:55;;;;;;;7.25;6.57;;;;;;;;;;5066021;28;20355;-74
2022/10/23 14:20:20;;;;;;;8.07;6.90;;;;;;;;;;5067135;28;20055;-75
2022/10/23 14:22:46;;;;;;;6.80;6.20;;;;;;;;;;5066852;28;20163;-74
2022/10/23 14:25:11;;;;;;;6.25;5.65;;;;;;;;;;5065885;28;20024;-74
2022/10/23 14:27:37;;;;;;;4.28;3.97;;;;;;;;;;5062803;28;20036;-75
2022/10/23 14:30:03;;;;;;;3.78;2.90;;;;;;;;;;5064080;28;20073;-75
2022/10/23 14:32:29;;;;;;;3.80;3.00;;;;;;;;;;5064970;28;20729;-75
2022/10/23 14:34:54;;;;;;;4.05;3.50;;;;;;;;;;5066405;28;20024;-73
2022/10/23 14:37:20;;;;;;;3.97;2.58;;;;;;;;;;5063072;28;20119;-73
2022/10/23 14:39:46;;;;;;;10.48;9.40;;;;;;;;;;5065347;28;20039;-73